Time;durP1;ratioP1;P1;durP2;ratioP2;P2;SDS_P1;SDS_P2;PMS_P1;PMS_P2;Temp;Humidity;BMP_temperature;BMP_pressure;BME280_temperature;BME280_humidity;BME280_pressure;Samples;Min_cycle;Max_cycle;Signal;HPM_P1;HPM_P2
2022/08/10 00:00:53;;;;;;;1.23;1.03;;;;;26.10;101646.00;;;;2087785;28;20216;-53
2022/08/10 00:01:53;;;;;;;0.90;0.90;;;;;26.10;101539.00;;;;2087417;28;20463;-52
2022/08/10 00:02:55;;;;;;;1.00;0.90;;;;;26.10;101545.00;;;;2087444;28;20217;-52
2022/08/10 00:03:55;;;;;;;1.30;1.03;;;;;26.10;101548.00;;;;2080342;28;20308;-53
2022/08/10 00:04:55;;;;;;;1.57;0.87;;;;;26.10;101543.00;;;;2078787;28;20494;-53
2022/08/10 00:05:56;;;;;;;1.27;1.00;;;;;26.10;101544.00;;;;2079860;28;20278;-52
2022/08/10 00:06:56;;;;;;;1.17;1.07;;;;;26.10;101541.00;;;;2079726;28;20214;-53
2022/08/10 00:07:56;;;;;;;1.30;0.90;;;;;26.10;101545.00;;;;2082564;28;20209;-52
2022/08/10 00:08:57;;;;;;;1.07;0.93;;;;;26.10;101545.00;;;;2079769;28;20252;-53
2022/08/10 00:09:57;;;;;;;1.10;1.00;;;;;26.10;101541.00;;;;2079915;28;20221;-53
2022/08/10 00:10:57;;;;;;;1.77;1.20;;;;;26.10;101559.00;;;;2079711;28;20214;-53
2022/08/10 00:11:58;;;;;;;1.20;1.10;;;;;26.10;101554.00;;;;2079035;28;20625;-53
2022/08/10 00:12:58;;;;;;;1.13;0.80;;;;;26.10;101545.00;;;;2083709;28;20208;-52
2022/08/10 00:13:59;;;;;;;1.07;0.97;;;;;26.10;101545.00;;;;2088265;28;20208;-52
2022/08/10 00:14:59;;;;;;;1.20;0.90;;;;;26.10;101540.00;;;;2087712;28;20217;-53
2022/08/10 00:16:00;;;;;;;0.90;0.80;;;;;26.10;101543.00;;;;2088104;28;20236;-52
2022/08/10 00:17:00;;;;;;;1.20;0.80;;;;;26.10;101548.00;;;;2079925;28;20221;-53
2022/08/10 00:18:00;;;;;;;1.00;0.90;;;;;26.10;101541.00;;;;2079037;28;20300;-53
2022/08/10 00:19:01;;;;;;;1.10;1.00;;;;;26.10;101548.00;;;;2080032;28;20267;-52
2022/08/10 00:20:01;;;;;;;1.10;1.00;;;;;26.10;101543.00;;;;2079670;28;20275;-52
2022/08/10 00:21:05;;;;;;;1.07;0.97;;;;;26.10;101542.00;;;;2079788;28;20237;-52
2022/08/10 00:22:05;;;;;;;1.20;1.00;;;;;26.10;101541.00;;;;2085198;28;20700;-52
2022/08/10 00:23:06;;;;;;;1.07;0.97;;;;;26.10;101544.00;;;;2087861;28;20447;-53
2022/08/10 00:24:06;;;;;;;1.70;0.90;;;;;26.10;101541.00;;;;2087702;28;20209;-53
2022/08/10 00:25:07;;;;;;;1.40;1.00;;;;;26.10;101538.00;;;;2087838;28;20742;-52
2022/08/10 00:26:07;;;;;;;1.20;1.10;;;;;26.10;101540.00;;;;2087786;28;20235;-52
2022/08/10 00:27:08;;;;;;;1.10;1.00;;;;;26.10;101540.00;;;;2087962;28;20788;-52
2022/08/10 00:28:08;;;;;;;0.90;0.90;;;;;26.10;101530.00;;;;2087089;28;20315;-52
2022/08/10 00:29:08;;;;;;;1.13;1.03;;;;;26.10;101535.00;;;;2087402;28;20302;-52
2022/08/10 00:30:09;;;;;;;1.13;1.03;;;;;26.10;101533.00;;;;2087376;28;20221;-52
2022/08/10 00:31:09;;;;;;;0.93;0.90;;;;;26.10;101535.00;;;;2087051;28;20216;-52
2022/08/10 00:32:10;;;;;;;1.00;0.90;;;;;26.10;101536.00;;;;2087927;28;20548;-52
2022/08/10 00:33:10;;;;;;;1.00;0.90;;;;;26.10;101530.00;;;;2087864;28;20247;-52
2022/08/10 00:34:11;;;;;;;1.10;0.80;;;;;26.10;101529.00;;;;2086752;28;20213;-52
2022/08/10 00:35:11;;;;;;;1.20;1.03;;;;;26.10;101532.00;;;;2088032;28;20209;-52
2022/08/10 00:36:11;;;;;;;1.00;0.90;;;;;26.10;101526.00;;;;2081292;28;20724;-52
2022/08/10 00:37:12;;;;;;;1.47;1.00;;;;;26.10;101534.00;;;;2078042;28;20288;-53
2022/08/10 00:38:12;;;;;;;1.60;1.17;;;;;26.10;101524.00;;;;2078746;28;20205;-53
2022/08/10 00:39:13;;;;;;;1.30;1.10;;;;;26.10;101534.00;;;;2079694;28;20468;-52
2022/08/10 00:40:13;;;;;;;0.80;0.80;;;;;26.10;101530.00;;;;2079525;28;20228;-52
2022/08/10 00:41:13;;;;;;;0.87;0.87;;;;;26.10;101529.00;;;;2079562;28;20225;-52
2022/08/10 00:42:14;;;;;;;1.10;1.00;;;;;26.10;101535.00;;;;2079444;28;20225;-52
2022/08/10 00:43:14;;;;;;;1.93;1.00;;;;;26.10;101534.00;;;;2079052;28;20221;-52
2022/08/10 00:44:15;;;;;;;1.00;0.80;;;;;26.10;101530.00;;;;2081400;28;20313;-52
2022/08/10 00:45:15;;;;;;;1.67;1.00;;;;;26.10;101531.00;;;;2087117;28;20648;-52
2022/08/10 00:46:15;;;;;;;1.10;1.00;;;;;26.10;101527.00;;;;2087804;28;20216;-52
2022/08/10 00:47:15;;;;;;;1.10;0.90;;;;;26.10;101532.00;;;;2087426;28;20221;-52
2022/08/10 00:48:16;;;;;;;1.10;1.00;;;;;26.10;101532.00;;;;2087416;28;20217;-52
2022/08/10 00:49:16;;;;;;;2.20;1.17;;;;;26.10;101527.00;;;;2087568;28;20216;-52
2022/08/10 00:50:17;;;;;;;1.30;1.00;;;;;26.10;101523.00;;;;2086855;28;20213;-52
2022/08/10 00:51:18;;;;;;;1.00;0.90;;;;;26.10;101542.00;;;;2086995;28;20510;-53
2022/08/10 00:52:18;;;;;;;1.20;1.10;;;;;26.10;101530.00;;;;2080989;28;20518;-53
2022/08/10 00:53:19;;;;;;;1.20;0.90;;;;;26.10;101531.00;;;;2078923;28;20233;-53
2022/08/10 00:54:19;;;;;;;1.30;1.20;;;;;26.10;101529.00;;;;2078956;28;20526;-52
2022/08/10 00:55:20;;;;;;;1.00;0.90;;;;;26.10;101529.00;;;;2079483;28;20225;-52
2022/08/10 00:56:20;;;;;;;1.20;1.10;;;;;26.10;101525.00;;;;2078965;28;20224;-52
2022/08/10 00:57:20;;;;;;;1.40;1.10;;;;;26.10;101533.00;;;;2078230;28;20713;-52
2022/08/10 00:58:21;;;;;;;0.97;0.87;;;;;26.10;101531.00;;;;2078879;28;20821;-52
2022/08/10 00:59:21;;;;;;;0.93;0.90;;;;;26.10;101541.00;;;;2078489;28;20225;-52
2022/08/10 01:00:22;;;;;;;1.10;1.00;;;;;26.10;101537.00;;;;2083332;28;20221;-53
2022/08/10 01:01:23;;;;;;;1.17;1.07;;;;;26.00;101543.00;;;;2086944;28;20224;-53
2022/08/10 01:02:23;;;;;;;0.87;0.80;;;;;26.10;101535.00;;;;2083968;28;20984;-54
2022/08/10 01:03:23;;;;;;;1.00;0.90;;;;;26.10;101533.00;;;;2083126;28;20224;-52
2022/08/10 01:04:24;;;;;;;1.13;1.00;;;;;26.10;101518.00;;;;2087719;28;20854;-52
2022/08/10 01:05:24;;;;;;;1.10;1.00;;;;;26.10;101537.00;;;;2086901;28;20766;-52
2022/08/10 01:06:29;;;;;;;0.83;0.80;;;;;26.10;101528.00;;;;2087124;28;20221;-52
2022/08/10 01:07:52;;;;;;;1.10;0.90;;;;;26.10;101503.00;;;;2085791;28;20214;-52
2022/08/10 01:09:15;;;;;;;1.10;0.90;;;;;26.10;101522.00;;;;2081527;28;20510;-53
2022/08/10 01:10:38;;;;;;;1.47;1.10;;;;;26.10;101524.00;;;;2078478;28;20460;-53
2022/08/10 01:11:48;;;;;;;1.10;0.90;;;;;26.10;101521.00;;;;2078123;28;20466;-53
2022/08/10 01:13:16;;;;;;;0.80;0.80;;;;;26.10;101518.00;;;;2079715;28;20529;-52
2022/08/10 01:14:25;;;;;;;1.20;0.97;;;;;26.10;101522.00;;;;2087005;28;20451;-53
2022/08/10 01:15:28;;;;;;;1.03;0.83;;;;;26.00;101519.00;;;;2086910;28;20451;-52
2022/08/10 01:16:35;;;;;;;0.83;0.83;;;;;26.10;101528.00;;;;2087106;28;20483;-52
2022/08/10 01:18:02;;;;;;;0.97;0.80;;;;;26.00;101509.00;;;;2078643;28;20527;-53
2022/08/10 01:19:33;;;;;;;0.93;0.83;;;;;26.00;101517.00;;;;2080978;28;20439;-53
2022/08/10 01:20:52;;;;;;;1.23;1.00;;;;;26.00;101511.00;;;;2078174;28;20456;-53
2022/08/10 01:22:19;;;;;;;1.23;1.13;;;;;26.00;101519.00;;;;2079735;28;21024;-52
2022/08/10 01:23:37;;;;;;;1.20;1.10;;;;;26.00;101518.00;;;;2087351;28;20464;-53
2022/08/10 01:25:34;;;;;;;0.80;0.80;;;;;26.00;101515.00;;;;2086319;28;20452;-52
2022/08/10 01:27:11;;;;;;;1.13;0.90;;;;;26.00;101522.00;;;;2084721;28;20461;-52
2022/08/10 01:28:18;;;;;;;1.10;1.00;;;;;26.00;101515.00;;;;2076455;28;21335;-53
2022/08/10 01:29:32;;;;;;;1.10;1.00;;;;;26.00;101510.00;;;;2077652;28;20475;-52
2022/08/10 01:30:32;;;;;;;1.30;1.20;;;;;26.00;101505.00;;;;2074959;28;21024;-53
2022/08/10 01:31:36;;;;;;;1.37;0.90;;;;;26.00;101422.00;;;;2069797;28;20470;-53
2022/08/10 01:32:53;;;;;;;1.13;1.03;;;;;26.00;101507.00;;;;2077017;28;20217;-52
2022/08/10 01:33:54;;;;;;;1.13;1.03;;;;;26.00;101503.00;;;;2072432;28;20884;-52
2022/08/10 01:34:58;;;;;;;1.30;0.93;;;;;26.00;101476.00;;;;2069957;28;20468;-53
2022/08/10 01:36:18;;;;;;;1.00;0.90;;;;;26.00;101498.00;;;;2071097;28;20457;-52
2022/08/10 01:37:22;;;;;;;0.93;0.80;;;;;26.00;101499.00;;;;2080660;28;20455;-53
2022/08/10 01:38:30;;;;;;;0.97;0.87;;;;;26.00;101508.00;;;;2086812;28;20520;-53
2022/08/10 01:39:38;;;;;;;1.17;1.00;;;;;26.00;101472.00;;;;2085692;28;20458;-52
2022/08/10 01:40:41;;;;;;;1.40;1.30;;;;;26.00;101504.00;;;;2085339;28;20462;-52
2022/08/10 01:41:43;;;;;;;1.33;1.03;;;;;26.00;101504.00;;;;2071745;28;20480;-52
2022/08/10 01:42:43;;;;;;;1.20;1.03;;;;;26.00;101461.00;;;;2078724;28;20467;-53
2022/08/10 01:43:50;;;;;;;1.33;1.20;;;;;26.00;101493.00;;;;2070515;28;20446;-52
2022/08/10 01:44:52;;;;;;;1.23;1.13;;;;;26.00;101499.00;;;;2078507;28;20263;-52
2022/08/10 01:45:55;;;;;;;1.40;1.20;;;;;26.00;101500.00;;;;2062687;28;20469;-52
2022/08/10 01:48:27;;;;;;;0.80;0.80;;;;;26.00;101500.00;;;;2062789;28;20457;-52
2022/08/10 01:48:46;;;;;;;0.97;0.90;;;;;26.00;101500.00;;;;2067739;28;20559;-52
2022/08/10 01:49:46;;;;;;;1.03;0.93;;;;;26.00;101500.00;;;;2075480;28;20453;-52
2022/08/10 01:50:49;;;;;;;1.73;1.17;;;;;26.00;101502.00;;;;2069095;28;20468;-52
2022/08/10 01:51:54;;;;;;;1.00;0.90;;;;;25.50;101504.00;;;;2061975;28;20594;-52
2022/08/10 01:52:57;;;;;;;1.00;0.90;;;;;26.00;101492.00;;;;2062838;28;20509;-52
2022/08/10 01:54:00;;;;;;;1.07;0.97;;;;;26.00;101496.00;;;;2054858;28;20912;-52
2022/08/10 01:55:00;;;;;;;1.57;0.73;;;;;26.00;101494.00;;;;2062650;28;20987;-52
2022/08/10 01:56:01;;;;;;;1.20;1.10;;;;;26.00;101499.00;;;;2078430;28;20471;-52
2022/08/10 01:57:01;;;;;;;1.10;1.00;;;;;26.00;101498.00;;;;2069855;28;20218;-52
2022/08/10 01:58:02;;;;;;;1.87;1.00;;;;;26.00;101482.00;;;;2069352;28;20218;-52
2022/08/10 01:59:14;;;;;;;1.50;1.10;;;;;26.00;101498.00;;;;2078311;28;20213;-52
2022/08/10 02:00:15;;;;;;;1.10;0.97;;;;;26.00;101497.00;;;;2063429;28;20856;-52
2022/08/10 02:01:17;;;;;;;1.03;0.93;;;;;26.00;101507.00;;;;2054927;28;20505;-52
2022/08/10 02:02:17;;;;;;;1.20;0.90;;;;;26.00;101475.00;;;;2070026;28;20225;-53
2022/08/10 02:03:18;;;;;;;1.10;1.00;;;;;26.00;101503.00;;;;2077967;28;20456;-52
2022/08/10 02:04:18;;;;;;;1.10;1.00;;;;;26.00;101504.00;;;;2061269;28;20361;-53
2022/08/10 02:05:19;;;;;;;1.20;1.10;;;;;26.00;101492.00;;;;2069886;28;20214;-52
2022/08/10 02:06:19;;;;;;;1.07;0.80;;;;;26.00;101503.00;;;;2069780;28;20214;-52
2022/08/10 02:07:23;;;;;;;1.00;0.90;;;;;26.00;101498.00;;;;2060806;28;20250;-52
2022/08/10 02:08:23;;;;;;;1.10;0.93;;;;;26.00;101475.00;;;;2062105;28;20466;-53
2022/08/10 02:09:28;;;;;;;1.30;1.20;;;;;26.00;101499.00;;;;2061745;28;20537;-52
2022/08/10 02:10:28;;;;;;;1.00;0.90;;;;;26.00;101508.00;;;;2062551;28;20233;-52
2022/08/10 02:11:28;;;;;;;1.40;1.20;;;;;26.00;101483.00;;;;2077476;28;20468;-52
2022/08/10 02:12:30;;;;;;;1.50;1.30;;;;;26.00;101495.00;;;;2078602;28;20244;-52
2022/08/10 02:13:30;;;;;;;1.30;1.00;;;;;26.00;101501.00;;;;2077959;28;20217;-52
2022/08/10 02:14:36;;;;;;;1.40;0.97;;;;;26.00;101463.00;;;;2061537;28;20454;-52
2022/08/10 02:15:37;;;;;;;1.87;0.90;;;;;26.00;101492.00;;;;2054197;28;20219;-52
2022/08/10 02:16:38;;;;;;;1.43;1.20;;;;;26.00;101499.00;;;;2057176;28;20540;-56
2022/08/10 02:17:40;;;;;;;1.00;0.90;;;;;26.00;101498.00;;;;2076750;28;20476;-53
2022/08/10 02:18:41;;;;;;;1.20;0.77;;;;;26.00;101497.00;;;;2078222;28;20584;-53
2022/08/10 02:19:42;;;;;;;1.17;1.07;;;;;26.00;101494.00;;;;2078058;28;20535;-53
2022/08/10 02:20:47;;;;;;;1.17;0.83;;;;;26.00;101489.00;;;;2081795;28;20268;-53
2022/08/10 02:21:47;;;;;;;1.10;1.00;;;;;26.00;101493.00;;;;2070531;28;20472;-53
2022/08/10 02:22:56;;;;;;;1.20;1.10;;;;;26.00;101505.00;;;;2066580;28;20461;-53
2022/08/10 02:23:57;;;;;;;1.00;0.90;;;;;26.00;101497.00;;;;2078281;28;20308;-52
2022/08/10 02:24:57;;;;;;;0.93;0.90;;;;;26.00;101499.00;;;;2077998;28;20452;-53
2022/08/10 02:25:58;;;;;;;0.97;0.87;;;;;26.00;101500.00;;;;2086209;28;20221;-52
2022/08/10 02:26:59;;;;;;;1.10;0.80;;;;;26.00;101500.00;;;;2078359;28;20377;-53
2022/08/10 02:27:59;;;;;;;1.27;1.10;;;;;26.00;101499.00;;;;2085422;28;20528;-52
2022/08/10 02:28:59;;;;;;;0.90;0.80;;;;;26.00;101599.00;;;;2086389;28;20270;-52
2022/08/10 02:30:00;;;;;;;0.90;0.80;;;;;26.00;101498.00;;;;2076070;28;20222;-52
2022/08/10 02:31:06;;;;;;;1.20;1.07;;;;;26.00;101496.00;;;;2078067;28;20578;-52
2022/08/10 02:32:06;;;;;;;1.10;1.00;;;;;26.00;101498.00;;;;2074068;28;20710;-52
2022/08/10 02:33:07;;;;;;;1.00;0.90;;;;;26.00;101498.00;;;;2070416;28;20494;-52
2022/08/10 02:34:08;;;;;;;1.30;1.10;;;;;26.00;101494.00;;;;2078266;28;20209;-52
2022/08/10 02:35:10;;;;;;;1.47;1.30;;;;;26.00;101501.00;;;;2069731;28;20613;-52
2022/08/10 02:36:10;;;;;;;1.10;1.00;;;;;26.00;101497.00;;;;2074773;28;20881;-56
2022/08/10 02:37:11;;;;;;;1.73;0.90;;;;;26.00;101462.00;;;;2086050;28;20529;-54
2022/08/10 02:38:11;;;;;;;1.00;0.90;;;;;26.00;101498.00;;;;2085327;28;20242;-53
2022/08/10 02:39:11;;;;;;;1.43;1.17;;;;;25.40;101497.00;;;;2086239;28;20212;-54
2022/08/10 02:40:12;;;;;;;1.33;0.93;;;;;25.90;101494.00;;;;2086409;28;20267;-54
2022/08/10 02:41:14;;;;;;;1.10;1.00;;;;;26.00;101496.00;;;;2085378;28;20216;-53
2022/08/10 02:42:23;;;;;;;1.10;1.00;;;;;26.00;101494.00;;;;2085097;28;20307;-53
2022/08/10 02:43:28;;;;;;;1.30;1.20;;;;;26.00;101490.00;;;;2082841;28;20971;-53
2022/08/10 02:44:38;;;;;;;1.10;1.00;;;;;26.00;101493.00;;;;2085973;28;20459;-53
2022/08/10 02:45:43;;;;;;;1.40;1.30;;;;;26.00;101494.00;;;;2084385;28;20459;-53
2022/08/10 02:46:48;;;;;;;1.10;1.00;;;;;26.00;101495.00;;;;2085528;28;20690;-53
2022/08/10 02:47:54;;;;;;;1.40;1.07;;;;;26.00;101457.00;;;;2083878;28;20636;-52
2022/08/10 02:49:02;;;;;;;1.27;0.93;;;;;26.00;101497.00;;;;2085971;28;20470;-53
2022/08/10 02:50:06;;;;;;;1.47;0.83;;;;;26.00;101498.00;;;;2077499;28;20473;-52
2022/08/10 02:51:23;;;;;;;1.23;0.97;;;;;26.00;101458.00;;;;2077564;28;20445;-53
2022/08/10 02:52:28;;;;;;;1.07;0.90;;;;;26.00;101496.00;;;;2082736;28;20459;-53
2022/08/10 02:53:40;;;;;;;1.10;1.00;;;;;26.00;101506.00;;;;2086234;28;21609;-53
2022/08/10 02:54:46;;;;;;;1.20;1.10;;;;;26.00;101490.00;;;;2086158;28;20463;-53
2022/08/10 02:56:09;;;;;;;1.20;1.10;;;;;26.00;101495.00;;;;2085609;28;20833;-53
2022/08/10 02:57:17;;;;;;;1.10;1.00;;;;;26.00;101506.00;;;;2085646;28;20466;-52
2022/08/10 02:58:25;;;;;;;1.30;1.10;;;;;26.00;101464.00;;;;2084854;28;20459;-53
2022/08/10 02:59:33;;;;;;;1.30;1.10;;;;;26.00;101500.00;;;;2084692;28;20454;-53
2022/08/10 03:00:37;;;;;;;1.30;1.00;;;;;26.00;101506.00;;;;2084910;28;20490;-53
2022/08/10 03:01:42;;;;;;;1.20;1.10;;;;;26.00;101502.00;;;;2070696;28;20464;-53
2022/08/10 03:02:45;;;;;;;1.00;0.90;;;;;26.00;101491.00;;;;2085176;28;20443;-52
2022/08/10 03:03:48;;;;;;;1.10;1.00;;;;;26.00;101496.00;;;;2085821;28;20443;-52
2022/08/10 03:04:50;;;;;;;1.40;1.30;;;;;26.00;101526.00;;;;2085987;28;20481;-53
2022/08/10 03:05:55;;;;;;;1.10;1.00;;;;;26.00;101503.00;;;;2085541;28;20443;-53
2022/08/10 03:06:59;;;;;;;1.20;1.10;;;;;26.00;101502.00;;;;2086159;28;20542;-52
2022/08/10 03:08:01;;;;;;;1.27;0.95;;;;;26.00;101499.00;;;;2084624;28;20448;-53
2022/08/10 03:09:02;;;;;;;1.40;1.20;;;;;26.00;101504.00;;;;2085957;28;20217;-53
2022/08/10 03:10:03;;;;;;;1.00;0.90;;;;;26.00;101501.00;;;;2078097;28;20528;-53
2022/08/10 03:11:03;;;;;;;1.33;1.20;;;;;26.00;101497.00;;;;2077860;28;21130;-52
2022/08/10 03:12:05;;;;;;;1.20;1.10;;;;;26.00;101500.00;;;;2069692;28;20222;-53
2022/08/10 03:13:07;;;;;;;1.20;1.00;;;;;26.00;101496.00;;;;2069773;28;20218;-52
2022/08/10 03:14:07;;;;;;;1.37;1.27;;;;;26.00;101506.00;;;;2070056;28;20461;-53
2022/08/10 03:15:09;;;;;;;1.37;1.07;;;;;26.00;101500.00;;;;2077455;28;20460;-52
2022/08/10 03:16:09;;;;;;;1.20;1.07;;;;;26.00;101461.00;;;;2077030;28;20210;-53
2022/08/10 03:17:10;;;;;;;2.03;1.30;;;;;26.00;101477.00;;;;2076810;28;20440;-52
2022/08/10 03:18:10;;;;;;;1.27;1.13;;;;;26.00;101502.00;;;;2076961;28;20681;-52
2022/08/10 03:19:11;;;;;;;1.10;0.97;;;;;26.00;101499.00;;;;2077857;28;20686;-53
2022/08/10 03:20:12;;;;;;;1.40;1.30;;;;;26.00;101486.00;;;;2070216;28;20529;-53
2022/08/10 03:21:13;;;;;;;1.30;1.20;;;;;26.00;101494.00;;;;2084786;28;20259;-53
2022/08/10 03:22:13;;;;;;;1.30;1.17;;;;;26.00;101496.00;;;;2077802;28;20221;-52
2022/08/10 03:23:16;;;;;;;1.07;0.97;;;;;26.00;101452.00;;;;2078382;28;20518;-53
2022/08/10 03:24:21;;;;;;;1.10;0.93;;;;;26.00;101503.00;;;;2079288;28;20209;-52
2022/08/10 03:25:21;;;;;;;1.00;0.90;;;;;26.00;101504.00;;;;2078987;28;20499;-52
2022/08/10 03:26:22;;;;;;;1.07;0.80;;;;;25.90;101502.00;;;;2071786;28;20456;-53
2022/08/10 03:27:22;;;;;;;1.20;1.10;;;;;26.00;101504.00;;;;2077510;28;20275;-53
2022/08/10 03:28:24;;;;;;;1.20;1.10;;;;;25.90;101508.00;;;;2079422;28;20221;-53
2022/08/10 03:29:25;;;;;;;1.17;1.00;;;;;26.00;101495.00;;;;2085807;28;20217;-53
2022/08/10 03:30:25;;;;;;;1.23;1.03;;;;;26.00;101504.00;;;;2087577;28;20466;-53
2022/08/10 03:31:26;;;;;;;1.17;1.07;;;;;26.00;101505.00;;;;2087415;28;20217;-52
2022/08/10 03:32:27;;;;;;;1.10;1.00;;;;;26.00;101497.00;;;;2087803;28;20580;-52
2022/08/10 03:33:29;;;;;;;1.40;1.20;;;;;26.00;101507.00;;;;2087724;28;20505;-52
2022/08/10 03:34:29;;;;;;;1.47;1.10;;;;;25.90;101497.00;;;;2086294;28;20240;-53
2022/08/10 03:35:30;;;;;;;1.10;1.00;;;;;26.00;101499.00;;;;2086304;28;20984;-52
2022/08/10 03:36:30;;;;;;;1.40;1.03;;;;;25.90;101460.00;;;;2082264;28;20694;-53
2022/08/10 03:37:31;;;;;;;1.10;1.00;;;;;25.90;101481.00;;;;2078638;28;20202;-53
2022/08/10 03:38:32;;;;;;;1.10;1.00;;;;;25.90;101500.00;;;;2079406;28;20448;-53
2022/08/10 03:39:32;;;;;;;1.10;1.00;;;;;25.90;101502.00;;;;2079308;28;20213;-52
2022/08/10 03:40:34;;;;;;;1.00;0.90;;;;;25.90;101506.00;;;;2079255;28;20463;-52
2022/08/10 03:41:43;;;;;;;1.53;1.20;;;;;25.90;101496.00;;;;2081317;28;20220;-52
2022/08/10 03:42:44;;;;;;;1.50;1.27;;;;;25.90;101499.00;;;;2087604;28;20522;-52
2022/08/10 03:43:46;;;;;;;1.10;1.00;;;;;25.90;101496.00;;;;2087592;28;20438;-52
2022/08/10 03:44:46;;;;;;;1.30;1.17;;;;;25.90;101497.00;;;;2087524;28;20213;-52
2022/08/10 03:45:48;;;;;;;1.40;1.30;;;;;25.90;101502.00;;;;2087287;28;20457;-52
2022/08/10 03:46:48;;;;;;;1.30;1.20;;;;;25.90;101505.00;;;;2087540;28;21036;-52
2022/08/10 03:47:49;;;;;;;1.10;1.00;;;;;25.90;101495.00;;;;2086566;28;20533;-52
2022/08/10 03:48:51;;;;;;;1.37;1.10;;;;;25.90;101495.00;;;;2087439;28;20221;-52
2022/08/10 03:49:51;;;;;;;1.30;0.93;;;;;25.90;101494.00;;;;2087010;28;20215;-55
2022/08/10 03:50:51;;;;;;;1.00;0.90;;;;;25.90;101492.00;;;;2071008;28;20445;-53
2022/08/10 03:51:52;;;;;;;1.10;1.00;;;;;25.90;101503.00;;;;2057734;28;20246;-54
2022/08/10 03:52:52;;;;;;;1.23;0.90;;;;;25.90;101492.00;;;;2071262;28;20214;-53
2022/08/10 03:53:53;;;;;;;1.43;1.33;;;;;25.90;101456.00;;;;2080146;28;20217;-53
2022/08/10 03:54:53;;;;;;;1.60;1.17;;;;;25.90;101497.00;;;;2083473;28;20577;-53
2022/08/10 03:55:54;;;;;;;1.43;1.00;;;;;25.90;101505.00;;;;2079294;28;20214;-53
2022/08/10 03:56:54;;;;;;;1.10;1.00;;;;;25.90;101497.00;;;;2087604;28;20216;-53
2022/08/10 03:57:54;;;;;;;1.13;1.03;;;;;25.90;101499.00;;;;2078309;28;20233;-52
2022/08/10 03:58:55;;;;;;;1.20;1.10;;;;;25.90;101480.00;;;;2079215;28;20228;-53
2022/08/10 03:59:55;;;;;;;1.43;1.07;;;;;25.90;101494.00;;;;2077971;28;20292;-52
2022/08/10 04:00:55;;;;;;;1.20;1.10;;;;;25.90;101493.00;;;;2071059;28;20220;-53
2022/08/10 04:01:56;;;;;;;1.10;0.90;;;;;25.90;101451.00;;;;2062862;28;20723;-53
2022/08/10 04:02:56;;;;;;;1.17;1.00;;;;;25.90;101488.00;;;;2070334;28;20669;-53
2022/08/10 04:03:56;;;;;;;1.30;1.20;;;;;25.90;101453.00;;;;2061758;28;20233;-53
2022/08/10 04:04:57;;;;;;;1.80;1.20;;;;;25.90;101494.00;;;;2070934;28;20214;-53
2022/08/10 04:05:57;;;;;;;1.60;1.10;;;;;25.90;101541.00;;;;2079382;28;20209;-53
2022/08/10 04:06:58;;;;;;;1.20;1.10;;;;;25.90;101491.00;;;;2079126;28;20216;-53
2022/08/10 04:07:59;;;;;;;1.20;1.10;;;;;25.90;101494.00;;;;2078415;28;20335;-53
2022/08/10 04:08:59;;;;;;;1.30;0.87;;;;;25.90;101483.00;;;;2079226;28;20232;-52
2022/08/10 04:09:59;;;;;;;1.00;0.90;;;;;25.00;101495.00;;;;2070928;28;20213;-52
2022/08/10 04:11:00;;;;;;;1.30;1.00;;;;;25.90;101491.00;;;;2071161;28;20207;-53
2022/08/10 04:12:00;;;;;;;1.57;1.13;;;;;25.90;101491.00;;;;2080161;28;20247;-53
2022/08/10 04:13:01;;;;;;;1.50;1.23;;;;;25.90;101492.00;;;;2086697;28;20258;-52
2022/08/10 04:14:03;;;;;;;1.10;1.00;;;;;25.90;101493.00;;;;2079877;28;20580;-52
2022/08/10 04:15:03;;;;;;;1.10;1.00;;;;;25.90;101492.00;;;;2079506;28;20233;-52
2022/08/10 04:16:04;;;;;;;1.37;1.00;;;;;25.90;101492.00;;;;2087831;28;20463;-52
2022/08/10 04:17:04;;;;;;;1.40;1.20;;;;;25.90;101485.00;;;;2087907;28;20256;-52
2022/08/10 04:18:05;;;;;;;1.70;1.10;;;;;25.90;101494.00;;;;2086870;28;20490;-52
2022/08/10 04:19:05;;;;;;;1.60;1.13;;;;;25.90;101495.00;;;;2087823;28;20236;-53
2022/08/10 04:20:07;;;;;;;1.37;1.07;;;;;25.90;101493.00;;;;2087828;28;20300;-53
2022/08/10 04:21:13;;;;;;;2.70;1.13;;;;;25.90;101497.00;;;;2087330;28;20201;-52
2022/08/10 04:22:17;;;;;;;1.40;1.17;;;;;25.90;101468.00;;;;2086286;28;21089;-53
2022/08/10 04:23:22;;;;;;;1.43;1.33;;;;;25.90;101502.00;;;;2087279;28;20455;-52
2022/08/10 04:24:23;;;;;;;1.30;1.20;;;;;25.90;101500.00;;;;2086607;28;20534;-52
2022/08/10 04:25:24;;;;;;;1.20;1.10;;;;;25.90;101488.00;;;;2087242;28;20448;-52
2022/08/10 04:26:24;;;;;;;1.33;1.00;;;;;25.90;101477.00;;;;2079100;28;20471;-52
2022/08/10 04:27:24;;;;;;;1.20;1.10;;;;;25.90;101489.00;;;;2078247;28;20323;-52
2022/08/10 04:28:25;;;;;;;1.30;1.20;;;;;25.90;101497.00;;;;2078914;28;20257;-52
2022/08/10 04:29:25;;;;;;;1.30;1.17;;;;;25.90;101494.00;;;;2087117;28;20220;-52
2022/08/10 04:30:26;;;;;;;1.77;1.57;;;;;25.90;101495.00;;;;2086906;28;20221;-52
2022/08/10 04:31:27;;;;;;;1.23;1.10;;;;;25.90;101496.00;;;;2077616;28;20213;-52
2022/08/10 04:32:30;;;;;;;1.43;1.27;;;;;25.90;101491.00;;;;2070419;28;20461;-53
2022/08/10 04:33:30;;;;;;;1.20;1.10;;;;;25.90;101488.00;;;;2079384;28;20593;-53
2022/08/10 04:34:31;;;;;;;1.57;1.17;;;;;25.90;101486.00;;;;2078838;28;20447;-53
2022/08/10 04:35:31;;;;;;;1.63;1.20;;;;;25.90;101493.00;;;;2078836;28;20210;-53
2022/08/10 04:36:31;;;;;;;1.30;1.20;;;;;25.90;101491.00;;;;2079114;28;20581;-53
2022/08/10 04:37:32;;;;;;;1.30;1.20;;;;;25.90;101495.00;;;;2078102;28;20226;-53
2022/08/10 04:38:32;;;;;;;1.17;1.00;;;;;25.90;101491.00;;;;2070823;28;20206;-52
2022/08/10 04:39:33;;;;;;;1.30;1.20;;;;;25.90;101458.00;;;;2070761;28;20222;-53
2022/08/10 04:40:33;;;;;;;1.23;1.13;;;;;25.90;101490.00;;;;2070760;28;20210;-52
2022/08/10 04:41:34;;;;;;;1.37;1.23;;;;;25.90;101487.00;;;;2086901;28;20288;-53
2022/08/10 04:42:35;;;;;;;1.30;1.20;;;;;25.90;101492.00;;;;2087711;28;20244;-52
2022/08/10 04:43:35;;;;;;;1.33;1.23;;;;;25.90;101484.00;;;;2087782;28;20456;-52
2022/08/10 04:44:35;;;;;;;1.40;1.20;;;;;25.90;101488.00;;;;2087093;28;20212;-52
2022/08/10 04:45:36;;;;;;;1.47;1.37;;;;;25.90;101496.00;;;;2078696;28;20216;-52
2022/08/10 04:46:36;;;;;;;1.33;1.03;;;;;25.90;101495.00;;;;2078966;28;20209;-52
2022/08/10 04:47:37;;;;;;;1.60;1.27;;;;;25.90;101495.00;;;;2086573;28;20232;-52
2022/08/10 04:48:37;;;;;;;1.20;1.03;;;;;25.90;101504.00;;;;2087855;28;20241;-53
2022/08/10 04:49:37;;;;;;;1.33;1.23;;;;;25.90;101499.00;;;;2087899;28;20447;-52
2022/08/10 04:50:38;;;;;;;1.20;1.10;;;;;25.90;101496.00;;;;2087809;28;20219;-52
2022/08/10 04:51:38;;;;;;;1.30;1.20;;;;;25.90;101494.00;;;;2087448;28;20216;-52
2022/08/10 04:52:38;;;;;;;1.70;1.00;;;;;25.90;101503.00;;;;2086235;28;20204;-52
2022/08/10 04:53:39;;;;;;;1.20;1.10;;;;;25.90;101503.00;;;;2079566;28;20305;-52
2022/08/10 04:54:39;;;;;;;1.10;1.00;;;;;25.90;101382.00;;;;2079550;28;20229;-53
2022/08/10 04:55:39;;;;;;;1.20;1.10;;;;;25.90;101492.00;;;;2079643;28;20620;-53
2022/08/10 04:56:40;;;;;;;1.40;1.30;;;;;25.90;101494.00;;;;2079638;28;20231;-52
2022/08/10 04:57:41;;;;;;;1.23;1.13;;;;;25.90;101497.00;;;;2078719;28;20209;-52
2022/08/10 04:58:41;;;;;;;1.50;1.20;;;;;25.90;101503.00;;;;2077596;28;20242;-52
2022/08/10 04:59:41;;;;;;;1.77;1.00;;;;;25.90;101508.00;;;;2079546;28;20216;-52
2022/08/10 05:00:42;;;;;;;1.33;1.23;;;;;25.90;101494.00;;;;2079563;28;20712;-53
2022/08/10 05:01:43;;;;;;;1.60;1.47;;;;;25.90;101498.00;;;;2079280;28;20206;-53
2022/08/10 05:02:43;;;;;;;1.27;1.17;;;;;25.90;101495.00;;;;2085212;28;20216;-53
2022/08/10 05:03:43;;;;;;;1.33;1.20;;;;;25.90;101492.00;;;;2078737;28;20449;-52
2022/08/10 05:04:44;;;;;;;1.50;1.40;;;;;25.90;101496.00;;;;2086997;28;20213;-53
2022/08/10 05:05:44;;;;;;;1.30;1.03;;;;;25.90;101490.00;;;;2086027;28;20583;-53
2022/08/10 05:06:45;;;;;;;1.40;1.30;;;;;25.90;101506.00;;;;2079695;28;20217;-52
2022/08/10 05:07:45;;;;;;;1.33;1.23;;;;;25.90;101490.00;;;;2082031;28;20213;-53
2022/08/10 05:08:45;;;;;;;1.60;1.30;;;;;25.90;101503.00;;;;2087530;28;20228;-53
2022/08/10 05:09:47;;;;;;;2.33;1.40;;;;;25.90;101495.00;;;;2087680;28;20208;-53
2022/08/10 05:10:47;;;;;;;1.33;1.23;;;;;25.90;101506.00;;;;2085720;28;20220;-52
2022/08/10 05:11:48;;;;;;;1.30;1.20;;;;;25.90;101494.00;;;;2087320;28;20482;-53